Time;durP1;ratioP1;P1;durP2;ratioP2;P2;SDS_P1;SDS_P2;PMS_P1;PMS_P2;Temp;Humidity;BMP_temperature;BMP_pressure;BME280_temperature;BME280_humidity;BME280_pressure;Samples;Min_cycle;Max_cycle;Signal;HPM_P1;HPM_P2
2022/08/25 00:01:53;;;;;;;8.90;2.30;;;;;;;22.90;68.18;100740.02;104187;1282;95893;-83
2022/08/25 00:04:22;;;;;;;9.40;2.50;;;;;;;22.91;68.13;100738.84;104370;1284;139357;-84
2022/08/25 00:06:52;;;;;;;12.00;2.70;;;;;;;22.93;68.09;100733.82;104309;1282;98964;-84
2022/08/25 00:09:26;;;;;;;9.30;2.50;;;;;;;22.95;68.36;100731.67;104179;1282;109333;-83
2022/08/25 00:11:54;;;;;;;10.90;2.50;;;;;;;22.94;68.35;100734.15;104266;1282;139704;-84
2022/08/25 00:14:26;;;;;;;10.00;2.70;;;;;;;22.90;68.61;100731.89;104507;1284;95659;-84
2022/08/25 00:16:54;;;;;;;10.80;2.30;;;;;;;22.89;68.45;100726.67;104594;1282;140307;-83
2022/08/25 00:19:26;;;;;;;9.30;2.20;;;;;;;22.88;68.59;100722.38;104194;1284;100002;-83
2022/08/25 00:21:54;;;;;;;9.30;2.30;;;;;;;22.84;68.86;100721.23;104043;1282;142001;-85
2022/08/25 00:24:23;;;;;;;9.60;2.20;;;;;;;22.80;69.18;100716.83;104064;1282;95553;-83
2022/08/25 00:26:55;;;;;;;9.50;2.30;;;;;;;22.75;69.19;100713.40;104030;1284;95696;-83
2022/08/25 00:29:27;;;;;;;9.80;2.80;;;;;;;22.77;69.22;100710.71;104033;1284;140669;-83
2022/08/25 00:31:56;;;;;;;9.70;2.40;;;;;;;22.77;69.40;100709.13;104054;1284;98932;-84
2022/08/25 00:34:30;;;;;;;10.00;2.70;;;;;;;22.77;69.30;100710.71;103953;1283;139313;-85
2022/08/25 00:36:58;;;;;;;8.50;2.70;;;;;;;22.75;69.56;100709.92;104020;1283;95236;-83
2022/08/25 00:39:26;;;;;;;10.10;2.40;;;;;;;22.76;69.84;100705.19;103939;1285;95333;-83
2022/08/25 00:41:56;;;;;;;9.10;2.50;;;;;;;22.77;69.68;100705.30;103958;1284;139014;-83
2022/08/25 00:44:26;;;;;;;10.10;2.70;;;;;;;22.72;69.93;100703.85;103970;1284;99989;-84
2022/08/25 00:46:58;;;;;;;9.60;2.20;;;;;;;22.68;70.16;100704.15;104136;1284;139104;-83
2022/08/25 00:49:36;;;;;;;9.00;2.50;;;;;;;22.64;70.43;100704.44;104239;1283;95656;-83
2022/08/25 00:52:13;;;;;;;10.60;2.70;;;;;;;22.65;70.73;100705.44;103967;1284;139309;-83
2022/08/25 00:54:53;;;;;;;11.40;2.90;;;;;;;22.67;70.81;100704.36;104208;1284;110217;-83
2022/08/25 00:57:29;;;;;;;11.60;2.80;;;;;;;22.65;70.82;100703.11;104027;1284;98053;-84
2022/08/25 01:00:18;;;;;;;11.30;3.00;;;;;;;22.63;70.98;100702.17;103917;1284;140538;-83
2022/08/25 01:02:46;;;;;;;9.60;2.60;;;;;;;22.59;71.31;100701.73;104086;1284;95278;-84
2022/08/25 01:05:14;;;;;;;9.50;2.50;;;;;;;22.57;71.30;100700.20;103953;1284;140402;-83
2022/08/25 01:07:42;;;;;;;11.00;2.70;;;;;;;22.58;71.43;100700.11;104040;1283;110162;-83
2022/08/25 01:10:12;;;;;;;9.90;2.50;;;;;;;22.63;71.27;100700.52;103975;1283;141453;-83
2022/08/25 01:12:40;;;;;;;8.20;2.40;;;;;;;22.69;71.17;100699.91;103979;1284;109325;-82
2022/08/25 01:15:11;;;;;;;10.50;2.50;;;;;;;22.73;71.14;100701.79;104001;1284;95268;-83
2022/08/25 01:17:47;;;;;;;12.30;3.00;;;;;;;22.74;71.17;100696.81;104015;1284;141978;-83
2022/08/25 01:20:18;;;;;;;10.20;2.90;;;;;;;22.74;71.32;100695.19;104021;1284;110147;-84
2022/08/25 01:22:47;;;;;;;10.80;2.80;;;;;;;22.71;71.50;100692.85;103980;1284;139641;-84
2022/08/25 01:25:41;;;;;;;11.10;2.60;;;;;;;22.68;71.61;100690.87;104202;1283;109354;-83
2022/08/25 01:28:09;;;;;;;9.00;2.50;;;;;;;22.67;71.67;100690.41;104055;1284;139859;-83
2022/08/25 01:30:38;;;;;;;11.90;2.80;;;;;;;22.67;71.77;100688.80;104197;1282;95674;-82
2022/08/25 01:33:08;;;;;;;11.60;3.10;;;;;;;22.66;71.84;100686.16;104216;1282;109670;-83
2022/08/25 01:35:37;;;;;;;10.80;3.40;;;;;;;22.63;72.06;100690.19;104005;1282;140669;-83
2022/08/25 01:38:06;;;;;;;12.10;3.30;;;;;;;22.63;72.21;100688.38;104157;1282;107716;-82
2022/08/25 01:40:35;;;;;;;10.30;3.00;;;;;;;22.66;72.27;100686.55;103910;1283;141348;-82
2022/08/25 01:43:20;;;;;;;12.20;3.40;;;;;;;22.68;72.14;100687.30;104295;1283;95158;-84
2022/08/25 01:45:48;;;;;;;10.20;3.10;;;;;;;22.75;72.10;100687.37;104099;1284;139810;-84
2022/08/25 01:48:17;;;;;;;10.20;3.10;;;;;;;22.78;71.90;100689.09;104239;1282;100342;-83
2022/08/25 01:50:45;;;;;;;9.80;2.80;;;;;;;22.83;71.80;100688.74;104224;1282;107736;-83
2022/08/25 01:53:27;;;;;;;9.40;2.90;;;;;;;22.88;71.73;100692.70;105430;1282;141829;-83
2022/08/25 01:56:00;;;;;;;12.00;3.30;;;;;;;22.94;71.61;100690.68;106170;1282;95129;-83
2022/08/25 01:58:34;;;;;;;12.40;2.90;;;;;;;22.94;71.50;100689.95;105846;1282;139232;-84
2022/08/25 02:01:06;;;;;;;8.70;2.90;;;;;;;22.96;71.41;100687.23;104244;1282;100213;-84
2022/08/25 02:03:40;;;;;;;10.50;3.50;;;;;;;23.01;71.49;100689.61;104009;1284;110524;-83
2022/08/25 02:06:15;;;;;;;12.20;3.20;;;;;;;23.03;71.40;100689.27;104203;1282;95735;-83
2022/08/25 02:08:43;;;;;;;10.90;3.10;;;;;;;23.08;71.42;100688.02;104326;1282;95559;-84
2022/08/25 02:11:14;;;;;;;12.10;3.40;;;;;;;23.10;71.35;100688.95;104118;1282;140328;-83
2022/08/25 02:13:42;;;;;;;13.40;3.50;;;;;;;23.11;71.42;100686.13;104175;1282;99813;-83
2022/08/25 02:16:17;;;;;;;11.10;3.20;;;;;;;23.12;71.22;100679.36;104088;1284;140661;-84
2022/08/25 02:18:46;;;;;;;12.60;3.80;;;;;;;23.15;71.27;100678.84;104207;1282;95669;-84
2022/08/25 02:21:14;;;;;;;14.00;3.50;;;;;;;23.19;71.12;100678.36;104180;1282;95680;-84
2022/08/25 02:23:42;;;;;;;10.60;3.20;;;;;;;23.20;71.13;100676.44;103959;1284;139815;-84
2022/08/25 02:26:12;;;;;;;11.40;3.60;;;;;;;23.21;71.07;100680.70;104006;1284;99893;-84
2022/08/25 02:28:40;;;;;;;12.10;3.40;;;;;;;23.25;70.88;100679.57;103980;1284;139545;-84
2022/08/25 02:31:08;;;;;;;12.50;3.90;;;;;;;23.28;71.00;100677.86;103981;1284;95245;-84
2022/08/25 02:33:36;;;;;;;12.50;3.90;;;;;;;23.28;70.78;100678.94;104045;1284;95175;-84
2022/08/25 02:36:06;;;;;;;10.70;3.40;;;;;;;23.28;71.01;100680.05;103903;1284;139080;-84
2022/08/25 02:38:35;;;;;;;11.00;3.70;;;;;;;23.31;71.18;100679.46;104030;1284;99386;-84
2022/08/25 02:41:16;;;;;;;11.40;3.70;;;;;;;23.33;71.15;100679.65;104339;1284;141230;-84
2022/08/25 02:43:47;;;;;;;12.40;3.70;;;;;;;23.39;70.99;100680.25;104055;1284;95250;-84
2022/08/25 02:46:18;;;;;;;12.00;3.80;;;;;;;23.44;70.72;100681.39;104021;1284;140512;-83
2022/08/25 02:48:47;;;;;;;10.50;3.40;;;;;;;23.38;71.14;100680.02;104102;1284;110278;-84
2022/08/25 02:51:15;;;;;;;11.50;3.80;;;;;;;23.27;71.34;100681.58;104154;1284;99638;-83
2022/08/25 02:53:45;;;;;;;12.60;4.00;;;;;;;23.26;71.38;100680.16;103966;1284;142139;-83
2022/08/25 02:56:15;;;;;;;13.90;3.90;;;;;;;23.31;71.40;100678.92;104035;1284;95492;-83
2022/08/25 02:58:44;;;;;;;13.20;4.20;;;;;;;23.33;71.06;100682.52;104301;1283;140659;-83
2022/08/25 03:01:13;;;;;;;13.20;4.50;;;;;;;23.34;71.00;100683.77;104218;1283;110228;-83
2022/08/25 03:03:43;;;;;;;13.20;4.50;;;;;;;23.30;71.32;100682.63;104123;1284;99856;-83
2022/08/25 03:06:14;;;;;;;14.40;4.00;;;;;;;23.18;71.85;100678.61;104085;1284;108350;-83
2022/08/25 03:08:43;;;;;;;15.80;4.40;;;;;;;23.17;72.18;100676.84;104174;1284;95266;-83
2022/08/25 03:11:11;;;;;;;14.00;4.00;;;;;;;23.17;72.07;100679.21;103931;1283;139316;-83
2022/08/25 03:13:40;;;;;;;11.10;3.70;;;;;;;23.17;72.28;100681.23;103966;1284;109760;-83
2022/08/25 03:16:09;;;;;;;12.00;4.20;;;;;;;23.12;72.41;100678.80;103896;1284;141775;-83
2022/08/25 03:18:40;;;;;;;12.20;3.90;;;;;;;23.19;72.05;100679.05;104080;1283;109067;-83
2022/08/25 03:21:10;;;;;;;10.90;4.40;;;;;;;23.26;71.83;100675.67;104063;1284;96169;-84
2022/08/25 03:23:40;;;;;;;11.70;3.90;;;;;;;23.27;71.96;100674.52;104040;1282;141834;-83
2022/08/25 03:28:54;;;;;;;13.90;3.90;;;;;;;23.37;71.56;100667.71;104067;1282;140778;-83
2022/08/25 03:31:26;;;;;;;12.60;3.90;;;;;;;23.43;71.36;100669.98;104129;1282;109186;-83
2022/08/25 03:33:54;;;;;;;13.80;4.00;;;;;;;23.43;71.36;100670.05;104111;1282;140841;-83
2022/08/25 03:36:23;;;;;;;12.30;3.80;;;;;;;23.39;71.50;100667.74;104161;1282;95042;-83
2022/08/25 03:38:52;;;;;;;10.80;4.10;;;;;;;23.35;71.64;100668.08;104107;1282;108720;-83
2022/08/25 03:41:27;;;;;;;11.50;3.90;;;;;;;23.27;71.82;100666.85;104362;1282;140748;-85
2022/08/25 03:43:56;;;;;;;13.00;4.40;;;;;;;23.22;72.02;100667.42;104606;1282;108339;-84
2022/08/25 03:46:33;;;;;;;16.70;4.20;;;;;;;23.18;72.20;100661.56;104203;1282;140261;-84
2022/08/25 03:49:03;;;;;;;14.50;4.30;;;;;;;23.20;72.22;100665.17;104396;1282;96146;-84
2022/08/25 03:51:39;;;;;;;12.90;4.10;;;;;;;23.21;72.21;100666.75;104322;1282;108735;-82
2022/08/25 03:54:09;;;;;;;14.20;4.40;;;;;;;23.19;72.41;100668.89;104524;1282;140721;-82
2022/08/25 03:56:37;;;;;;;13.40;4.60;;;;;;;23.19;72.42;100668.37;104309;1282;109525;-82
2022/08/25 03:59:08;;;;;;;13.00;4.40;;;;;;;23.17;72.53;100668.70;104162;1282;140795;-83
2022/08/25 04:01:38;;;;;;;16.60;4.70;;;;;;;23.15;72.41;100668.84;104069;1284;95266;-83
2022/08/25 04:04:08;;;;;;;15.00;4.60;;;;;;;23.15;72.54;100669.05;104200;1281;141763;-83
2022/08/25 04:06:38;;;;;;;13.90;4.40;;;;;;;23.18;72.50;100668.95;104243;1282;99911;-83
2022/08/25 04:09:06;;;;;;;20.70;4.90;;;;;;;23.18;72.52;100668.61;104448;1282;109379;-84
2022/08/25 04:11:35;;;;;;;18.00;4.90;;;;;;;23.19;72.53;100667.63;104320;1282;140751;-84
2022/08/25 04:14:03;;;;;;;16.00;5.20;;;;;;;23.26;72.37;100670.55;104380;1282;95741;-86
2022/08/25 04:16:34;;;;;;;18.50;5.30;;;;;;;23.24;72.23;100669.80;104171;1282;138652;-84
2022/08/25 04:19:08;;;;;;;16.00;4.90;;;;;;;23.24;72.26;100668.58;104209;1282;100000;-84
2022/08/25 04:21:38;;;;;;;15.00;4.60;;;;;;;23.29;72.31;100671.64;104311;1282;110056;-84
2022/08/25 04:24:08;;;;;;;18.40;4.80;;;;;;;23.39;71.85;100672.14;104213;1283;139113;-83
2022/08/25 04:26:41;;;;;;;14.10;5.40;;;;;;;23.42;71.79;100668.79;104222;1284;95181;-84
2022/08/25 04:29:10;;;;;;;18.80;4.70;;;;;;;23.41;71.77;100667.48;104266;1283;138962;-83
2022/08/25 04:31:40;;;;;;;14.60;4.90;;;;;;;23.39;71.75;100668.50;104781;1284;99438;-84
2022/08/25 04:34:09;;;;;;;13.90;4.60;;;;;;;23.48;71.61;100664.05;104740;1283;142605;-84
2022/08/25 04:36:59;;;;;;;18.60;5.20;;;;;;;23.56;71.22;100665.27;104184;1284;95802;-83
2022/08/25 04:39:27;;;;;;;19.30;5.20;;;;;;;23.57;71.41;100659.16;104229;1283;95262;-83
2022/08/25 04:41:56;;;;;;;18.10;5.40;;;;;;;23.63;71.09;100656.88;104185;1284;139416;-83
2022/08/25 04:44:24;;;;;;;17.90;5.40;;;;;;;23.69;70.68;100655.14;104140;1284;99999;-84
2022/08/25 04:46:52;;;;;;;17.10;5.10;;;;;;;23.76;70.60;100655.91;104256;1284;142788;-84
2022/08/25 04:49:20;;;;;;;18.60;5.60;;;;;;;23.75;70.73;100653.64;104321;1283;95145;-83
2022/08/25 04:51:48;;;;;;;15.70;5.00;;;;;;;23.75;70.60;100653.23;104225;1284;139533;-84
2022/08/25 04:54:20;;;;;;;18.20;5.40;;;;;;;23.76;70.82;100650.12;104234;1284;110320;-84
2022/08/25 04:56:51;;;;;;;18.20;5.30;;;;;;;23.77;70.79;100648.23;104198;1283;98842;-84
2022/08/25 04:59:26;;;;;;;19.40;5.20;;;;;;;23.84;70.73;100649.48;103993;1284;139667;-83
2022/08/25 05:02:01;;;;;;;20.10;5.40;;;;;;;23.85;70.79;100650.50;104178;1284;95152;-85
2022/08/25 05:04:30;;;;;;;19.40;5.60;;;;;;;23.83;70.80;100645.87;104114;1284;139794;-83
2022/08/25 05:06:59;;;;;;;22.40;5.20;;;;;;;23.90;70.64;100650.67;104577;1283;107346;-84
2022/08/25 05:09:27;;;;;;;25.60;4.90;;;;;;;23.94;70.50;100652.19;104079;1284;98952;-84
2022/08/25 05:12:03;;;;;;;18.40;6.00;;;;;;;24.01;70.37;100654.65;103968;1284;140247;-83
2022/08/25 05:14:31;;;;;;;22.50;5.60;;;;;;;24.13;70.02;100647.80;104088;1284;96320;-83
2022/08/25 05:17:00;;;;;;;18.50;5.60;;;;;;;24.19;69.76;100646.52;103928;1284;139081;-84
2022/08/25 05:19:28;;;;;;;20.10;5.70;;;;;;;24.20;69.25;100645.58;104006;1283;110429;-85
2022/08/25 05:21:56;;;;;;;22.00;5.20;;;;;;;24.06;69.17;100648.91;103938;1284;139945;-83
2022/08/25 05:24:26;;;;;;;25.20;6.30;;;;;;;24.02;69.79;100646.11;104215;1282;109958;-84
2022/08/25 05:26:55;;;;;;;22.40;6.00;;;;;;;24.10;69.78;100645.98;104128;1282;95676;-84
2022/08/25 05:29:23;;;;;;;21.90;5.80;;;;;;;24.15;69.80;100647.09;104043;1284;140962;-84
2022/08/25 05:31:52;;;;;;;20.10;5.60;;;;;;;24.31;69.32;100645.58;104112;1282;110139;-83
2022/08/25 05:34:21;;;;;;;19.60;5.50;;;;;;;24.45;68.60;100645.23;104102;1282;139604;-84
2022/08/25 05:36:49;;;;;;;23.30;6.20;;;;;;;24.57;68.00;100645.49;104281;1282;109757;-83
2022/08/25 05:39:17;;;;;;;19.90;6.40;;;;;;;24.68;67.64;100643.16;104673;1282;95276;-84
2022/08/25 05:41:45;;;;;;;21.20;6.30;;;;;;;24.76;67.20;100644.95;104687;1282;141521;-84
2022/08/25 05:44:13;;;;;;;20.90;6.00;;;;;;;24.79;67.08;100644.84;104538;1282;109226;-85
2022/08/25 05:46:47;;;;;;;22.00;5.90;;;;;;;24.83;66.34;100644.52;104033;1282;140969;-84
2022/08/25 05:49:15;;;;;;;20.90;6.60;;;;;;;24.87;66.20;100645.44;104126;1282;107363;-84
2022/08/25 05:51:42;;;;;;;20.80;6.10;;;;;;;24.91;66.07;100652.04;104086;1282;96540;-84
2022/08/25 05:54:10;;;;;;;21.00;6.10;;;;;;;24.95;66.09;100653.14;104081;1284;95271;-84
2022/08/25 05:56:38;;;;;;;26.60;6.40;;;;;;;25.02;65.66;100656.00;104090;1282;110175;-84
2022/08/25 05:59:06;;;;;;;23.30;6.40;;;;;;;25.08;65.81;100659.55;104040;1282;140070;-84
2022/08/25 06:04:23;;;;;;;21.20;6.00;;;;;;;25.04;65.42;100656.81;104013;1282;140660;-83
2022/08/25 06:06:53;;;;;;;23.20;6.40;;;;;;;25.03;65.14;100652.30;104127;1282;95342;-83
2022/08/25 06:09:21;;;;;;;18.80;6.30;;;;;;;24.99;64.89;100650.63;104198;1282;111004;-83
2022/08/25 06:11:49;;;;;;;25.20;6.30;;;;;;;24.94;64.44;100646.13;103931;1282;140809;-83
2022/08/25 06:14:22;;;;;;;20.00;6.00;;;;;;;24.96;65.06;100649.11;104137;1282;108459;-83
2022/08/25 06:16:51;;;;;;;20.70;5.90;;;;;;;25.03;65.44;100649.92;103935;1284;139480;-83
2022/08/25 06:19:20;;;;;;;21.90;6.20;;;;;;;25.08;64.63;100652.61;104191;1282;95341;-83
2022/08/25 06:21:48;;;;;;;23.10;6.80;;;;;;;25.19;64.58;100655.55;104106;1281;140513;-84
2022/08/25 06:24:16;;;;;;;19.80;6.70;;;;;;;25.26;63.89;100658.80;105802;1282;99914;-85
2022/08/25 06:26:44;;;;;;;24.50;6.20;;;;;;;25.28;64.06;100660.02;105811;1284;107020;-82
2022/08/25 06:29:12;;;;;;;19.40;5.90;;;;;;;25.38;63.98;100665.42;105551;1281;138475;-83
2022/08/25 06:31:42;;;;;;;18.60;6.30;;;;;;;25.42;63.21;100668.17;104235;1282;95236;-84
2022/08/25 06:34:11;;;;;;;21.40;6.30;;;;;;;25.37;62.76;100668.02;104109;1282;141189;-85
2022/08/25 06:36:39;;;;;;;18.80;6.60;;;;;;;25.37;63.12;100668.75;104219;1282;98131;-84
2022/08/25 06:39:08;;;;;;;21.20;6.90;;;;;;;25.47;63.50;100669.61;104219;1282;109621;-84
2022/08/25 06:41:37;;;;;;;20.50;6.00;;;;;;;25.52;63.13;100671.34;104075;1282;141397;-84
2022/08/25 06:44:05;;;;;;;18.20;6.20;;;;;;;25.57;63.21;100667.82;104095;1282;95675;-83
2022/08/25 06:46:33;;;;;;;18.70;6.10;;;;;;;25.62;62.95;100668.98;104014;1284;140325;-84
2022/08/25 06:49:05;;;;;;;23.70;6.80;;;;;;;25.74;62.48;100667.24;104173;1282;100399;-84
2022/08/25 06:51:34;;;;;;;26.40;6.60;;;;;;;25.87;61.97;100664.31;104172;1281;108781;-84
2022/08/25 06:54:05;;;;;;;20.70;6.80;;;;;;;25.86;60.76;100666.92;104242;1282;138979;-84
2022/08/25 06:56:33;;;;;;;20.30;6.60;;;;;;;25.76;60.89;100666.05;104081;1282;95263;-84
2022/08/25 06:59:03;;;;;;;18.50;6.50;;;;;;;25.76;61.13;100667.86;103983;1281;141520;-83
2022/08/25 07:01:32;;;;;;;19.70;6.70;;;;;;;25.89;61.70;100666.20;104131;1282;100031;-83
2022/08/25 07:04:02;;;;;;;22.70;6.20;;;;;;;26.03;61.88;100667.34;103953;1282;141699;-83
2022/08/25 07:06:35;;;;;;;20.70;6.50;;;;;;;26.10;61.66;100671.82;104198;1282;95723;-83
2022/08/25 07:09:05;;;;;;;23.50;6.70;;;;;;;26.12;61.34;100671.14;104113;1282;95732;-84
2022/08/25 07:11:34;;;;;;;23.20;6.40;;;;;;;26.24;60.63;100667.15;103983;1282;141493;-84
2022/08/25 07:14:04;;;;;;;21.90;6.40;;;;;;;26.34;59.52;100668.64;104155;1282;99916;-83
2022/08/25 07:16:32;;;;;;;19.80;6.30;;;;;;;26.28;59.34;100670.62;103954;1282;139614;-84
2022/08/25 07:19:01;;;;;;;20.80;6.20;;;;;;;26.29;60.24;100675.11;104337;1282;95254;-84
2022/08/25 07:21:31;;;;;;;22.70;6.10;;;;;;;26.39;60.14;100674.73;104077;1282;95140;-84
2022/08/25 07:24:09;;;;;;;18.10;6.40;;;;;;;26.53;60.85;100677.84;104052;1282;141795;-84
2022/08/25 07:26:39;;;;;;;21.50;6.40;;;;;;;26.67;60.67;100678.80;104062;1282;98324;-82
2022/08/25 07:29:28;;;;;;;22.50;6.30;;;;;;;26.77;59.66;100681.41;104031;1282;139914;-86
2022/08/25 07:32:01;;;;;;;20.10;6.20;;;;;;;26.86;59.79;100683.14;104093;1282;97061;-83
2022/08/25 07:37:21;;;;;;;25.00;6.80;;;;;;;27.06;58.19;100684.42;104062;1282;109821;-83
2022/08/25 07:40:13;;;;;;;21.00;6.30;;;;;;;27.18;58.15;100686.80;103978;1282;141182;-84
2022/08/25 07:42:41;;;;;;;24.10;6.70;;;;;;;27.20;58.48;100684.23;104071;1282;109483;-83
2022/08/25 07:45:10;;;;;;;17.90;6.20;;;;;;;27.20;57.86;100683.16;104036;1282;95578;-85
2022/08/25 07:47:39;;;;;;;24.70;6.70;;;;;;;27.21;56.92;100686.91;103997;1282;144784;-84
2022/08/25 07:50:11;;;;;;;19.80;6.10;;;;;;;27.20;56.81;100685.37;104168;1282;110457;-84
2022/08/25 07:52:39;;;;;;;21.30;6.60;;;;;;;27.31;56.70;100683.85;104103;1282;139789;-84
2022/08/25 07:55:08;;;;;;;22.40;6.70;;;;;;;27.46;56.41;100687.74;104093;1282;108733;-84
2022/08/25 07:57:41;;;;;;;21.00;6.50;;;;;;;27.58;55.94;100689.73;104079;1282;95253;-84
2022/08/25 08:00:12;;;;;;;20.60;6.30;;;;;;;27.72;55.91;100689.53;103900;1282;139794;-83
2022/08/25 08:02:42;;;;;;;19.70;6.30;;;;;;;27.88;56.44;100689.63;104119;1282;108793;-83
2022/08/25 08:05:12;;;;;;;24.20;6.20;;;;;;;27.92;55.21;100689.96;103939;1282;139111;-82
2022/08/25 08:07:40;;;;;;;25.40;7.20;;;;;;;28.04;55.63;100684.65;104225;1282;110144;-84
2022/08/25 08:10:13;;;;;;;22.10;6.50;;;;;;;28.20;54.62;100688.27;104080;1282;138935;-83
2022/08/25 08:13:01;;;;;;;22.30;6.50;;;;;;;28.34;54.76;100689.46;104319;1282;95665;-83
2022/08/25 08:15:29;;;;;;;22.80;6.80;;;;;;;28.51;54.11;100685.60;104317;1282;110308;-83
2022/08/25 08:17:58;;;;;;;21.40;7.00;;;;;;;28.67;53.34;100689.25;104033;1282;141155;-84
2022/08/25 08:20:27;;;;;;;21.50;6.20;;;;;;;28.82;53.78;100690.32;104024;1282;110205;-83
2022/08/25 08:22:56;;;;;;;24.80;6.90;;;;;;;28.88;53.15;100685.58;104255;1281;138987;-85
2022/08/25 08:25:24;;;;;;;22.40;6.40;;;;;;;28.92;53.09;100686.01;104045;1282;95341;-84
2022/08/25 08:27:55;;;;;;;24.70;6.60;;;;;;;29.04;52.72;100683.95;103972;1282;138999;-84
2022/08/25 08:30:23;;;;;;;23.00;6.00;;;;;;;29.14;52.74;100685.11;104070;1282;100679;-84
2022/08/25 08:32:54;;;;;;;21.90;6.70;;;;;;;29.27;52.37;100685.85;104178;1282;108329;-83
2022/08/25 08:35:40;;;;;;;24.30;6.70;;;;;;;29.36;51.47;100684.20;104199;1281;140094;-84
2022/08/25 08:38:09;;;;;;;23.20;6.50;;;;;;;29.35;51.18;100682.31;104178;1281;95661;-84
2022/08/25 08:44:00;;;;;;;22.40;6.70;;;;;;;29.40;50.84;100682.02;104081;1282;98383;-84
2022/08/25 08:46:43;;;;;;;19.40;6.50;;;;;;;29.41;49.95;100682.60;103951;1282;139663;-85
2022/08/25 08:49:36;;;;;;;28.30;6.70;;;;;;;29.47;50.54;100682.21;104295;1282;96801;-83
2022/08/25 08:52:07;;;;;;;23.20;6.40;;;;;;;29.72;50.66;100682.95;104739;1282;139638;-84
2022/08/25 08:54:38;;;;;;;23.30;6.70;;;;;;;29.90;50.41;100676.51;104068;1282;110231;-85
2022/08/25 08:57:16;;;;;;;25.30;6.80;;;;;;;30.06;49.76;100678.14;104077;1282;99820;-84
2022/08/25 09:00:05;;;;;;;26.70;6.90;;;;;;;30.24;49.36;100674.85;103901;1281;139324;-85
2022/08/25 09:02:48;;;;;;;24.70;6.90;;;;;;;30.39;49.48;100674.21;104125;1282;95162;-84
2022/08/25 09:05:21;;;;;;;29.30;7.40;;;;;;;30.51;49.25;100671.45;103935;1282;140350;-84
2022/08/25 09:07:54;;;;;;;24.80;6.70;;;;;;;30.63;49.30;100666.70;104148;1282;109326;-85
2022/08/25 09:10:27;;;;;;;25.50;7.10;;;;;;;30.77;49.03;100665.89;104124;1282;139906;-85
2022/08/25 09:13:02;;;;;;;26.70;7.50;;;;;;;31.28;48.60;100663.71;104035;1282;108402;-84
2022/08/25 09:19:44;;;;;;;26.30;6.30;;;;;;;34.38;43.99;100665.60;104144;1282;95347;-85
2022/08/25 09:22:30;;;;;;;21.20;5.90;;;;;;;36.18;41.03;100667.02;104187;1282;139783;-85
2022/08/25 09:25:16;;;;;;;18.80;5.50;;;;;;;37.56;37.58;100667.50;104084;1281;100186;-84
2022/08/25 09:28:19;;;;;;;23.90;5.60;;;;;;;38.58;35.52;100669.98;103955;1282;140429;-86
2022/08/25 09:30:57;;;;;;;23.30;5.90;;;;;;;39.08;33.32;100665.28;103962;1281;95282;-86
2022/08/25 09:33:27;;;;;;;20.40;5.60;;;;;;;39.96;32.78;100661.41;104198;1282;95175;-86
2022/08/25 09:35:56;;;;;;;21.30;6.10;;;;;;;40.85;30.85;100661.32;104054;1282;139902;-85
2022/08/25 09:38:26;;;;;;;24.00;6.80;;;;;;;41.46;29.67;100664.04;104136;1282;99891;-85
2022/08/25 09:40:58;;;;;;;21.40;5.50;;;;;;;42.06;28.91;100663.64;104064;1282;140019;-87
2022/08/25 09:43:39;;;;;;;17.80;5.20;;;;;;;42.68;28.01;100661.70;104215;1282;95241;-84
2022/08/25 09:46:23;;;;;;;19.60;5.30;;;;;;;43.33;28.03;100659.11;103913;1282;141088;-85
2022/08/25 09:48:56;;;;;;;18.70;5.90;;;;;;;43.90;26.88;100656.45;104360;1282;110266;-86
2022/08/25 09:51:31;;;;;;;20.00;5.70;;;;;;;44.03;25.53;100653.36;104605;1281;100353;-86
2022/08/25 09:54:12;;;;;;;16.80;5.70;;;;;;;44.32;26.07;100652.88;104029;1281;138836;-85
2022/08/25 09:57:07;;;;;;;19.60;5.70;;;;;;;44.89;25.49;100648.67;104066;1282;95271;-85
2022/08/25 09:59:36;;;;;;;19.60;5.80;;;;;;;45.25;24.89;100644.45;104075;1282;140272;-84
2022/08/25 10:02:27;;;;;;;17.90;5.00;;;;;;;45.57;24.15;100641.13;102806;1282;1734017;-86
2022/08/25 10:04:55;;;;;;;21.10;5.30;;;;;;;45.86;24.22;100638.48;104037;1282;141456;-86
2022/08/25 10:07:28;;;;;;;20.90;5.50;;;;;;;46.33;24.13;100638.55;104368;1282;107752;-84
2022/08/25 10:10:00;;;;;;;19.50;5.60;;;;;;;46.56;22.54;100636.02;104041;1281;139270;-86
2022/08/25 10:12:40;;;;;;;19.70;5.20;;;;;;;46.08;22.64;100629.34;104146;1281;95249;-86
2022/08/25 10:15:19;;;;;;;17.30;5.30;;;;;;;46.18;23.77;100625.68;104252;1282;108744;-85
2022/08/25 10:18:27;;;;;;;17.50;5.50;;;;;;;46.41;23.28;100624.06;104145;1282;139299;-84
2022/08/25 10:21:03;;;;;;;12.20;4.00;;;;;;;46.59;21.17;100620.81;104580;1282;109321;-88
2022/08/25 10:23:50;;;;;;;12.60;3.80;;;;;;;46.57;19.78;100618.09;104080;1282;141292;-85
2022/08/25 10:26:50;;;;;;;11.70;3.50;;;;;;;46.70;20.18;100614.48;104225;1282;95180;-85
2022/08/25 10:29:52;;;;;;;11.30;3.40;;;;;;;47.22;18.00;100611.05;104014;1282;140926;-85
2022/08/25 10:32:29;;;;;;;9.30;3.30;;;;;;;46.94;17.28;100609.02;104021;1282;100228;-84
2022/08/25 10:35:02;;;;;;;13.20;2.60;;;;;;;47.05;16.19;100602.63;103980;1282;139899;-84
2022/08/25 10:37:39;;;;;;;8.30;2.00;;;;;;;46.82;13.99;100600.88;104095;1282;95886;-83
2022/08/25 10:40:36;;;;;;;9.90;2.50;;;;;;;46.59;14.20;100600.73;103997;1282;141909;-85
2022/08/25 10:43:10;;;;;;;8.40;2.10;;;;;;;46.64;14.39;100595.88;104088;1282;108766;-82
2022/08/25 10:45:50;;;;;;;7.80;2.20;;;;;;;46.65;13.80;100598.85;104308;1282;98970;-84
2022/08/25 10:48:44;;;;;;;8.40;2.30;;;;;;;46.33;13.40;100596.02;104072;1281;107806;-85
2022/08/25 10:51:42;;;;;;;8.20;2.00;;;;;;;45.94;12.57;100587.98;104164;1282;95766;-82
2022/08/25 10:54:24;;;;;;;6.70;2.10;;;;;;;45.20;13.60;100585.63;105821;1282;138574;-83
2022/08/25 10:57:16;;;;;;;6.80;2.40;;;;;;;43.76;14.64;100583.02;106422;1282;109234;-84
2022/08/25 11:00:06;;;;;;;7.70;2.10;;;;;;;42.59;16.51;100580.95;104520;1282;140060;-86
2022/08/25 11:02:53;;;;;;;7.80;2.20;;;;;;;41.50;16.87;100578.34;104027;1282;109493;-84
2022/08/25 11:05:38;;;;;;;8.10;1.90;;;;;;;40.38;16.40;100575.88;103967;1282;140455;-85
2022/08/25 11:08:16;;;;;;;9.00;2.20;;;;;;;39.09;16.61;100572.69;104167;1282;95373;-83
2022/08/25 11:10:57;;;;;;;8.90;2.10;;;;;;;38.03;18.01;100572.98;104209;1279;140087;-84
2022/08/25 11:13:43;;;;;;;7.80;2.00;;;;;;;37.58;19.85;100571.02;104413;1282;99966;-84
2022/08/25 11:16:17;;;;;;;9.90;2.30;;;;;;;37.20;20.74;100563.65;104075;1282;140094;-83
2022/08/25 11:19:00;;;;;;;10.30;2.50;;;;;;;36.86;21.60;100561.62;104227;1282;95226;-85
2022/08/25 11:22:15;;;;;;;7.60;2.60;;;;;;;36.51;21.50;100558.64;104123;1282;95299;-85
2022/08/25 11:24:52;;;;;;;8.60;2.80;;;;;;;36.04;22.72;100562.28;104040;1284;108730;-84
2022/08/25 11:27:27;;;;;;;10.20;2.70;;;;;;;35.76;23.78;100560.84;103987;1282;99515;-83
2022/08/25 11:30:07;;;;;;;8.20;2.50;;;;;;;35.46;23.17;100557.48;104098;1282;139527;-86
2022/08/25 11:32:37;;;;;;;10.10;2.70;;;;;;;35.11;24.00;100556.73;104042;1282;95335;-85
2022/08/25 11:35:10;;;;;;;9.80;2.40;;;;;;;34.87;23.92;100555.34;104049;1282;141136;-84
2022/08/25 11:38:05;;;;;;;11.50;2.60;;;;;;;34.58;23.99;100551.39;104266;1282;110504;-84
2022/08/25 11:40:43;;;;;;;7.90;2.50;;;;;;;34.37;24.55;100552.43;104010;1282;139624;-84
2022/08/25 11:43:41;;;;;;;8.20;2.50;;;;;;;34.16;24.05;100547.85;104069;1282;107586;-84
2022/08/25 11:46:29;;;;;;;8.70;2.40;;;;;;;33.92;24.55;100550.11;103970;1281;140312;-83
2022/08/25 11:49:27;;;;;;;8.70;2.50;;;;;;;33.74;24.85;100547.98;104088;1282;96465;-84